ADDS METAR Data INFO
IDs: Format: Raw Decoded Include TAF

Data at: 0309 UTC 20 Jul 2018

KCXP 200255Z AUTO 24008KT 10SM CLR 32/03 A3006 RMK AO2
KCXP 200235Z AUTO 24006KT 10SM CLR 32/02 A3006 RMK AO2
KCXP 200215Z AUTO 27008KT 10SM CLR 34/00 A3006 RMK AO2
KCXP 200155Z AUTO 26008G15KT 10SM CLR 34/00 A3005 RMK AO2
KCXP 200135Z AUTO 27014G18KT 10SM CLR 35/00 A3005 RMK AO2
KCXP 200115Z AUTO 29014G19KT 10SM CLR 35/00 A3005 RMK AO2
KCXP 200055Z AUTO 27010G16KT 10SM CLR 35/M02 A3005 RMK AO2
KCXP 200035Z AUTO 26008G14KT 210V290 10SM CLR 37/M03 A3005 RMK AO2
KCXP 200015Z AUTO 28008G16KT 10SM CLR 37/M02 A3006 RMK AO2
KCXP 192355Z AUTO 29011G17KT 10SM CLR 37/M03 A3006 RMK AO2
KCXP 192335Z AUTO 28010G16KT 10SM CLR 37/M04 A3006 RMK AO2
KCXP 192315Z AUTO 28012G17KT 10SM CLR 37/M04 A3006 RMK AO2 LTG DSNT SE AND S
KCXP 192255Z AUTO 28009G16KT 10SM CLR 37/M07 A3006 RMK AO2
KCXP 192235Z AUTO 26008G16KT 10SM CLR 37/M07 A3007 RMK AO2
KCXP 192215Z AUTO 28010G15KT 10SM CLR 37/M07 A3008 RMK AO2
KCXP 192155Z AUTO 30012G18KT 10SM CLR 37/M07 A3009 RMK AO2
KCXP 192135Z AUTO 25006KT 10SM CLR 37/M08 A3010 RMK AO2
KCXP 192115Z AUTO 24005G15KT 210V280 10SM CLR 37/M08 A3011 RMK AO2
KCXP 192055Z AUTO 28009KT 10SM CLR 35/M05 A3011 RMK AO2
KCXP 192035Z AUTO 31006KT 10SM CLR 35/M05 A3012 RMK AO2
KCXP 192015Z AUTO 28005KT 10SM CLR 35/M03 A3013 RMK AO2
KCXP 191955Z AUTO 29005KT 10SM CLR 34/M03 A3014 RMK AO2
KCXP 191935Z AUTO 00000KT 10SM CLR 34/00 A3015 RMK AO2
KCXP 191915Z AUTO 00000KT 10SM CLR 33/00 A3015 RMK AO2
KCXP 191855Z AUTO 00000KT 10SM CLR 32/00 A3016 RMK AO2
KCXP 191835Z AUTO 00000KT 10SM CLR 32/03 A3016 RMK AO2
KCXP 191815Z AUTO 00000KT 10SM CLR 30/03 A3017 RMK AO2
KCXP 191755Z AUTO 17003KT 10SM CLR 29/02 A3017 RMK AO2
KCXP 191735Z AUTO 22004KT 10SM CLR 28/00 A3018 RMK AO2
KCXP 191715Z AUTO 16003KT 10SM CLR 27/01 A3019 RMK AO2
KCXP 191655Z AUTO 00000KT 10SM CLR 26/02 A3019 RMK AO2
KCXP 191635Z AUTO 21003KT 10SM CLR 24/02 A3020 RMK AO2
KCXP 191615Z AUTO 25003KT 10SM CLR 23/01 A3020 RMK AO2
KCXP 191555Z AUTO 00000KT 10SM CLR 23/03 A3021 RMK AO2
KCXP 191535Z AUTO 00000KT 10SM CLR 21/03 A3020 RMK AO2
KCXP 191515Z AUTO 28003KT 10SM CLR 20/03 A3021 RMK AO2
KCXP 191455Z AUTO 00000KT 10SM CLR 19/04 A3020 RMK AO2
KCXP 191435Z AUTO 00000KT 10SM CLR 19/03 A3020 RMK AO2
KCXP 191415Z AUTO 00000KT 10SM CLR 18/05 A3021 RMK AO2
KCXP 191355Z AUTO 00000KT 10SM CLR 16/05 A3021 RMK AO2
KCXP 191335Z AUTO 00000KT 10SM CLR 15/04 A3020 RMK AO2
KCXP 191315Z AUTO 00000KT 10SM CLR 16/03 A3019 RMK AO2
KCXP 191255Z AUTO 30003KT 10SM CLR 15/03 A3020 RMK AO2
KCXP 191235Z AUTO 00000KT 10SM CLR 15/04 A3019 RMK AO2
KCXP 191215Z AUTO 00000KT 10SM CLR 17/04 A3019 RMK AO2
KCXP 191155Z AUTO 00000KT 10SM CLR 18/03 A3019 RMK AO2
KCXP 191135Z AUTO 00000KT 10SM CLR 18/03 A3019 RMK AO2
KCXP 191115Z AUTO 25003KT 10SM CLR 19/02 A3019 RMK AO2
KCXP 191055Z AUTO 00000KT 10SM CLR 20/02 A3019 RMK AO2
KCXP 191035Z AUTO 33004KT 10SM CLR 19/02 A3019 RMK AO2
KCXP 191015Z AUTO 00000KT 10SM CLR 18/03 A3019 RMK AO2
KCXP 190955Z AUTO 00000KT 10SM CLR 18/03 A3019 RMK AO2
KCXP 190935Z AUTO 00000KT 10SM CLR 18/03 A3019 RMK AO2
KCXP 190915Z AUTO 00000KT 10SM CLR 19/03 A3019 RMK AO2
KCXP 190855Z AUTO 33003KT 10SM CLR 19/02 A3019 RMK AO2
KCXP 190835Z AUTO 00000KT 10SM CLR 19/03 A3019 RMK AO2
KCXP 190815Z AUTO 00000KT 10SM CLR 19/02 A3019 RMK AO2
KCXP 190755Z AUTO 13003KT 10SM CLR 22/02 A3019 RMK AO2
KCXP 190735Z AUTO 00000KT 10SM CLR 22/02 A3019 RMK AO2
KCXP 190715Z AUTO 00000KT 10SM CLR 23/00 A3019 RMK AO2
KCXP 190655Z AUTO 25004KT 10SM CLR 24/00 A3019 RMK AO2
KCXP 190635Z AUTO 04004KT 10SM CLR 22/00 A3019 RMK AO2
KCXP 190615Z AUTO 00000KT 10SM CLR 22/00 A3018 RMK AO2
KCXP 190555Z AUTO 00000KT 10SM CLR 23/00 A3018 RMK AO2
KCXP 190535Z AUTO 00000KT 10SM CLR 24/00 A3017 RMK AO2
KCXP 190515Z AUTO 14003KT 10SM CLR 25/00 A3017 RMK AO2
KCXP 190455Z AUTO 14003KT 10SM CLR 27/00 A3016 RMK AO2
KCXP 190435Z AUTO 00000KT 10SM CLR 28/M02 A3015 RMK AO2
KCXP 190415Z AUTO 29006KT 10SM CLR 29/M03 A3015 RMK AO2
KCXP 190355Z AUTO 26004KT 10SM CLR 29/M02 A3014 RMK AO2
KCXP 190335Z AUTO 29009KT 10SM CLR 30/M02 A3013 RMK AO2
KCXP 190315Z AUTO 27005KT 10SM CLR 31/M02 A3013 RMK AO2
KCXP 190255Z AUTO 28007KT 10SM FEW013 32/M02 A3013 RMK AO2
KCXP 190235Z AUTO 27009KT 10SM CLR 33/M02 A3013 RMK AO2
KCXP 190215Z AUTO 27010G18KT 10SM CLR 33/M02 A3013 RMK AO2
KCXP 190155Z AUTO 26013G20KT 10SM CLR 34/M01 A3013 RMK AO2
KCXP 190135Z AUTO 26007G15KT 230V290 10SM CLR 34/00 A3013 RMK AO2
KCXP 190115Z AUTO 27011G17KT 230V300 10SM CLR 34/M02 A3013 RMK AO2
KCXP 190055Z AUTO 25009G19KT 10SM CLR 35/M03 A3014 RMK AO2
KCXP 190035Z AUTO 26007G15KT 230V290 10SM CLR 35/M04 A3014 RMK AO2
KCXP 190015Z AUTO 26012G17KT 10SM CLR 35/M05 A3014 RMK AO2
KCXP 182355Z AUTO 23009G17KT 210V280 10SM CLR 36/M05 A3014 RMK AO2
KCXP 182335Z AUTO 25009G14KT 190V280 10SM CLR 35/M05 A3014 RMK AO2
KCXP 182315Z AUTO 24011G17KT 10SM CLR 36/M05 A3015 RMK AO2
KCXP 182255Z AUTO 24008G15KT 9SM CLR 36/M06 A3015 RMK AO2
KCXP 182235Z AUTO 23009G15KT 210V300 10SM CLR 36/M09 A3015 RMK AO2
KCXP 182215Z AUTO 24010G14KT 220V290 8SM CLR 36/M09 A3016 RMK AO2
KCXP 182155Z AUTO 29007G16KT 5SM HZ CLR 36/M09 A3017 RMK AO2
KCXP 182135Z AUTO 26009G15KT 240V320 5SM HZ CLR 36/M08 A3017 RMK AO2
KCXP 182115Z AUTO 28014G18KT 5SM HZ CLR 35/M05 A3017 RMK AO2
KCXP 182055Z AUTO 26010G14KT 220V350 10SM CLR 35/M06 A3017 RMK AO2
KCXP 182035Z AUTO 22005KT 9SM CLR 35/M05 A3018 RMK AO2
KCXP 182015Z AUTO 01006KT 10SM CLR 34/M05 A3019 RMK AO2
KCXP 181955Z AUTO 00000KT 10SM CLR 34/M05 A3019 RMK AO2
KCXP 181935Z AUTO 31007KT 10SM CLR 34/M05 A3020 RMK AO2
KCXP 181915Z AUTO 33004KT 10SM CLR 33/M02 A3021 RMK AO2
KCXP 181855Z AUTO 27007KT 10SM CLR 33/M02 A3021 RMK AO2
KCXP 181835Z AUTO 28004KT 10SM CLR 32/00 A3022 RMK AO2
KCXP 181815Z AUTO 25007KT 10SM CLR 31/00 A3022 RMK AO2
KCXP 181755Z AUTO 00000KT 10SM CLR 30/03 A3023 RMK AO2
KCXP 181735Z AUTO 00000KT 10SM CLR 28/03 A3023 RMK AO2
KCXP 181715Z AUTO 23003KT 10SM CLR 27/03 A3023 RMK AO2